createdAt,value
2022-08-20T00:02:08.470Z,3.50
2022-08-20T00:04:31.173Z,3.80
2022-08-20T00:06:56.462Z,3.30
2022-08-20T00:09:19.314Z,3.50
2022-08-20T00:11:44.449Z,3.70
2022-08-20T00:14:07.763Z,3.60
2022-08-20T00:16:33.082Z,3.40
2022-08-20T00:18:58.033Z,3.80
2022-08-20T00:21:21.300Z,3.50
2022-08-20T00:23:49.556Z,3.50
2022-08-20T00:26:12.674Z,4.00
2022-08-20T00:28:38.842Z,3.10
2022-08-20T00:31:03.318Z,3.50
2022-08-20T00:33:26.121Z,3.40
2022-08-20T00:35:53.804Z,3.40
2022-08-20T00:38:18.703Z,3.70
2022-08-20T00:40:44.458Z,4.10
2022-08-20T00:43:26.342Z,3.90
2022-08-20T00:45:48.993Z,4.00
2022-08-20T00:48:12.526Z,3.90
2022-08-20T00:50:37.116Z,3.30
2022-08-20T00:53:01.127Z,4.30
2022-08-20T00:55:27.497Z,3.80
2022-08-20T00:58:01.818Z,3.50
2022-08-20T01:00:30.564Z,4.30
2022-08-20T01:02:56.456Z,3.80
2022-08-20T01:05:19.341Z,3.80
2022-08-20T01:07:42.800Z,3.90
2022-08-20T01:10:08.934Z,3.80
2022-08-20T01:12:32.562Z,4.50
2022-08-20T01:14:55.806Z,3.50
2022-08-20T01:17:22.510Z,3.90
2022-08-20T01:19:49.247Z,3.80
2022-08-20T01:22:32.259Z,3.90
2022-08-20T01:24:58.800Z,4.10
2022-08-20T01:27:22.906Z,4.60
2022-08-20T01:29:47.844Z,4.10
2022-08-20T01:32:11.103Z,3.90
2022-08-20T01:34:36.311Z,4.10
2022-08-20T01:36:59.158Z,4.00
2022-08-20T01:39:24.660Z,3.90
2022-08-20T01:42:07.707Z,3.50
2022-08-20T01:44:31.089Z,3.60
2022-08-20T01:46:57.956Z,3.70
2022-08-20T01:49:29.144Z,3.70
2022-08-20T01:51:57.548Z,4.30
2022-08-20T01:54:24.170Z,6.70
2022-08-20T01:56:52.922Z,3.50
2022-08-20T01:59:18.370Z,3.50
2022-08-20T02:01:46.539Z,4.20
2022-08-20T02:04:15.425Z,3.60
2022-08-20T02:06:42.010Z,4.20
2022-08-20T02:09:22.621Z,4.40
2022-08-20T02:11:46.254Z,3.90
2022-08-20T02:14:12.638Z,3.90
2022-08-20T02:16:37.229Z,3.90
2022-08-20T02:19:09.706Z,4.30
2022-08-20T02:21:35.157Z,4.20
2022-08-20T02:23:59.907Z,4.40
2022-08-20T02:26:25.178Z,3.90
2022-08-20T02:28:51.513Z,3.50
2022-08-20T02:31:14.254Z,4.00
2022-08-20T02:33:39.860Z,4.00
2022-08-20T02:36:04.823Z,3.90
2022-08-20T02:38:30.734Z,3.80
2022-08-20T02:40:53.480Z,3.90
2022-08-20T02:43:18.468Z,3.50
2022-08-20T02:45:44.160Z,3.40
2022-08-20T02:48:07.182Z,3.20
2022-08-20T02:50:33.488Z,4.40
2022-08-20T02:52:56.091Z,3.90
2022-08-20T02:55:27.644Z,4.00
2022-08-20T02:57:52.878Z,5.00
2022-08-20T03:00:21.055Z,3.80
2022-08-20T03:02:46.619Z,3.60
2022-08-20T03:05:09.730Z,4.10
2022-08-20T03:07:32.683Z,4.30
2022-08-20T03:09:55.311Z,4.40
2022-08-20T03:12:17.989Z,4.70
2022-08-20T03:14:43.078Z,4.60
2022-08-20T03:17:05.667Z,4.50
2022-08-20T03:19:28.697Z,4.00
2022-08-20T03:21:51.810Z,4.00
2022-08-20T03:24:18.161Z,4.20
2022-08-20T03:26:40.834Z,4.50
2022-08-20T03:29:06.068Z,4.60
2022-08-20T03:31:31.403Z,4.30
2022-08-20T03:33:54.096Z,4.20
2022-08-20T03:36:22.239Z,3.90
2022-08-20T03:38:51.217Z,4.40
2022-08-20T03:41:13.944Z,4.80
2022-08-20T03:43:37.794Z,4.40
2022-08-20T03:46:01.221Z,4.10
2022-08-20T03:48:23.929Z,4.30
2022-08-20T03:50:49.117Z,4.30
2022-08-20T03:53:13.141Z,4.60
2022-08-20T03:55:40.412Z,4.40
2022-08-20T03:58:06.427Z,4.10
2022-08-20T04:00:33.472Z,4.10
2022-08-20T04:02:57.357Z,4.40
2022-08-20T04:05:21.323Z,4.70
2022-08-20T04:07:45.221Z,5.10
2022-08-20T04:10:11.745Z,4.20
2022-08-20T04:12:34.376Z,7.30
2022-08-20T04:15:00.022Z,5.00
2022-08-20T04:17:25.025Z,4.80
2022-08-20T04:19:47.703Z,4.60
2022-08-20T04:22:11.783Z,4.10
2022-08-20T04:24:34.772Z,4.80
2022-08-20T04:27:00.691Z,4.80
2022-08-20T04:29:26.096Z,5.30
2022-08-20T04:31:56.149Z,5.10
2022-08-20T04:34:21.017Z,5.30
2022-08-20T04:36:43.573Z,4.10
2022-08-20T04:39:06.513Z,4.70
2022-08-20T04:41:29.077Z,4.40
2022-08-20T04:43:55.015Z,4.80
2022-08-20T04:46:17.851Z,5.40
2022-08-20T04:48:47.540Z,5.10
2022-08-20T04:51:15.135Z,5.00
2022-08-20T04:53:38.165Z,6.00
2022-08-20T04:56:01.699Z,5.40
2022-08-20T04:58:27.532Z,5.10
2022-08-20T05:00:56.685Z,4.80
2022-08-20T05:03:24.605Z,5.30
2022-08-20T05:05:48.072Z,4.90
2022-08-20T05:08:19.609Z,5.00
2022-08-20T05:10:43.399Z,5.00
2022-08-20T05:13:08.874Z,5.60
2022-08-20T05:15:31.858Z,4.50
2022-08-20T05:17:56.680Z,5.20
2022-08-20T05:20:19.643Z,5.10
2022-08-20T05:22:42.217Z,5.90
2022-08-20T05:25:05.670Z,4.70
2022-08-20T05:27:29.110Z,4.70
2022-08-20T05:29:53.699Z,5.10
2022-08-20T05:32:17.374Z,5.30
2022-08-20T05:34:40.192Z,5.20
2022-08-20T05:37:04.473Z,6.30
2022-08-20T05:39:34.227Z,5.20
2022-08-20T05:41:59.595Z,5.40
2022-08-20T05:44:22.778Z,5.70
2022-08-20T05:46:46.270Z,5.70
2022-08-20T05:49:10.417Z,5.40
2022-08-20T05:51:33.276Z,4.80
2022-08-20T05:54:00.733Z,5.80
2022-08-20T05:56:27.161Z,5.00
2022-08-20T05:58:52.580Z,5.30
2022-08-20T06:01:15.491Z,5.00
2022-08-20T06:03:57.321Z,6.50
2022-08-20T06:06:44.187Z,9.90
2022-08-20T06:09:08.160Z,11.10
2022-08-20T06:11:37.243Z,8.60
2022-08-20T06:14:00.472Z,6.20
2022-08-20T06:16:29.083Z,5.30
2022-08-20T06:18:52.523Z,5.20
2022-08-20T06:21:25.783Z,4.50
2022-08-20T06:23:57.532Z,4.90
2022-08-20T06:26:30.469Z,5.10
2022-08-20T06:28:56.283Z,5.70
2022-08-20T06:31:22.066Z,5.00
2022-08-20T06:33:47.378Z,4.90
2022-08-20T06:36:10.118Z,5.10
2022-08-20T06:38:35.288Z,5.10
2022-08-20T06:41:02.981Z,5.50
2022-08-20T06:43:31.618Z,5.30
2022-08-20T06:46:00.873Z,5.40
2022-08-20T06:48:24.030Z,5.00
2022-08-20T06:50:49.066Z,5.40
2022-08-20T06:53:13.414Z,4.80
2022-08-20T06:55:40.009Z,4.90
2022-08-20T06:58:22.250Z,5.40
2022-08-20T07:00:54.771Z,4.90
2022-08-20T07:03:17.380Z,4.80
2022-08-20T07:05:44.016Z,4.90
2022-08-20T07:08:12.069Z,5.20
2022-08-20T07:10:36.890Z,5.20
2022-08-20T07:13:00.432Z,4.90
2022-08-20T07:15:26.424Z,5.70
2022-08-20T07:17:55.520Z,4.70
2022-08-20T07:20:24.028Z,4.80
2022-08-20T07:22:49.870Z,4.70
2022-08-20T07:25:14.546Z,5.70
2022-08-20T07:27:37.387Z,4.60
2022-08-20T07:30:20.067Z,5.50
2022-08-20T07:32:45.238Z,4.70
2022-08-20T07:35:10.980Z,5.30
2022-08-20T07:37:37.512Z,5.30
2022-08-20T07:40:02.467Z,6.20
2022-08-20T07:42:27.861Z,4.90
2022-08-20T07:44:52.885Z,5.00
2022-08-20T07:47:18.516Z,4.60
2022-08-20T07:49:43.616Z,4.60
2022-08-20T07:52:07.019Z,4.70
2022-08-20T07:54:36.007Z,4.90
2022-08-20T07:57:07.832Z,5.30
2022-08-20T07:59:31.093Z,4.60
2022-08-20T08:01:53.841Z,5.10
2022-08-20T08:04:16.697Z,4.80
2022-08-20T08:06:45.750Z,5.10
2022-08-20T08:09:10.186Z,5.10
2022-08-20T08:11:34.359Z,4.20
2022-08-20T08:13:59.974Z,5.00
2022-08-20T08:16:22.826Z,4.70
2022-08-20T08:18:49.014Z,4.30
2022-08-20T08:21:14.669Z,4.70
2022-08-20T08:23:37.251Z,4.80
2022-08-20T08:25:59.853Z,4.80
2022-08-20T08:28:22.730Z,4.10
2022-08-20T08:30:46.481Z,4.40
2022-08-20T08:33:31.062Z,4.50
2022-08-20T08:35:59.206Z,5.30
2022-08-20T08:38:25.436Z,4.60
2022-08-20T08:40:48.548Z,4.40
2022-08-20T08:43:21.292Z,5.40
2022-08-20T08:45:46.152Z,4.90
2022-08-20T08:48:10.083Z,4.60
2022-08-20T08:50:53.028Z,4.40
2022-08-20T08:53:24.514Z,4.10
2022-08-20T08:55:47.264Z,4.00
2022-08-20T08:58:16.603Z,4.10
2022-08-20T09:00:55.972Z,4.80
2022-08-20T09:03:38.246Z,4.30
2022-08-20T09:06:04.706Z,4.20
2022-08-20T09:08:48.175Z,4.40
2022-08-20T09:11:10.953Z,4.60
2022-08-20T09:13:36.946Z,4.10
2022-08-20T09:15:59.748Z,3.70
2022-08-20T09:18:22.475Z,4.20
2022-08-20T09:20:47.249Z,4.30
2022-08-20T09:23:09.900Z,4.70
2022-08-20T09:25:32.830Z,4.30
2022-08-20T09:27:55.446Z,4.30
2022-08-20T09:30:18.738Z,3.90
2022-08-20T09:32:43.505Z,4.20
2022-08-20T09:35:09.327Z,4.60
2022-08-20T09:37:37.702Z,4.70
2022-08-20T09:40:03.233Z,4.60
2022-08-20T09:42:30.978Z,3.90
2022-08-20T09:44:57.034Z,4.30
2022-08-20T09:47:19.988Z,4.20
2022-08-20T09:49:43.399Z,3.80
2022-08-20T09:52:10.264Z,3.60
2022-08-20T09:54:33.936Z,3.70
2022-08-20T09:57:00.912Z,4.60
2022-08-20T09:59:26.341Z,4.00
2022-08-20T10:01:48.998Z,4.50
2022-08-20T10:04:11.565Z,4.40
2022-08-20T10:06:39.070Z,3.70
2022-08-20T10:09:03.428Z,4.10
2022-08-20T10:11:28.563Z,4.20
2022-08-20T10:13:53.305Z,4.20
2022-08-20T10:16:16.012Z,4.10
2022-08-20T10:18:38.745Z,3.90
2022-08-20T10:21:01.418Z,3.50
2022-08-20T10:23:26.698Z,3.80
2022-08-20T10:25:52.005Z,3.70
2022-08-20T10:28:14.752Z,3.60
2022-08-20T10:30:37.498Z,3.70
2022-08-20T10:33:00.251Z,4.00
2022-08-20T10:35:23.121Z,3.50
2022-08-20T10:37:48.329Z,3.60
2022-08-20T10:40:11.447Z,3.60
2022-08-20T10:42:35.519Z,3.90
2022-08-20T10:44:59.725Z,4.00
2022-08-20T10:47:24.004Z,4.10
2022-08-20T10:49:49.722Z,4.00
2022-08-20T10:52:14.572Z,4.20
2022-08-20T10:54:41.563Z,3.40
2022-08-20T10:57:04.627Z,3.60
2022-08-20T10:59:27.189Z,3.70
2022-08-20T11:01:49.964Z,3.60
2022-08-20T11:04:15.042Z,3.90
2022-08-20T11:06:37.755Z,3.40
2022-08-20T11:09:00.661Z,3.60
2022-08-20T11:11:23.454Z,5.30
2022-08-20T11:13:49.378Z,4.30
2022-08-20T11:16:14.379Z,4.10
2022-08-20T11:18:37.330Z,3.30
2022-08-20T11:21:00.208Z,4.10
2022-08-20T11:23:28.253Z,3.50
2022-08-20T11:25:57.158Z,3.90
2022-08-20T11:28:31.523Z,3.40
2022-08-20T11:30:55.148Z,3.70
2022-08-20T11:33:17.738Z,4.30
2022-08-20T11:35:49.297Z,4.20
2022-08-20T11:38:13.001Z,3.80
2022-08-20T11:40:35.645Z,3.60
2022-08-20T11:43:17.538Z,3.40
2022-08-20T11:45:40.539Z,3.30
2022-08-20T11:48:03.345Z,3.60
2022-08-20T11:50:29.084Z,3.30
2022-08-20T11:52:51.660Z,3.30
2022-08-20T11:55:14.987Z,3.10
2022-08-20T11:57:41.161Z,3.70
2022-08-20T12:00:06.810Z,3.40
2022-08-20T12:02:32.736Z,3.30
2022-08-20T12:04:58.047Z,3.20
2022-08-20T12:07:24.067Z,3.50
2022-08-20T12:09:50.954Z,3.50
2022-08-20T12:12:14.988Z,3.50
2022-08-20T12:14:40.041Z,3.90
2022-08-20T12:17:14.029Z,3.50
2022-08-20T12:19:38.073Z,3.90
2022-08-20T12:22:01.030Z,3.30
2022-08-20T12:24:46.130Z,3.60
2022-08-20T12:27:12.422Z,4.10
2022-08-20T12:29:37.386Z,3.60
2022-08-20T12:32:00.267Z,4.00
2022-08-20T12:34:22.829Z,3.60
2022-08-20T12:36:45.473Z,3.50
2022-08-20T12:39:09.424Z,3.60
2022-08-20T12:41:32.436Z,3.50
2022-08-20T12:43:57.280Z,3.30
2022-08-20T12:46:19.901Z,3.90
2022-08-20T12:48:42.482Z,3.70
2022-08-20T12:51:05.236Z,3.30
2022-08-20T12:53:28.083Z,3.60
2022-08-20T12:55:50.835Z,3.30
2022-08-20T12:58:15.976Z,3.70
2022-08-20T13:00:43.227Z,3.90
2022-08-20T13:03:07.369Z,3.40
2022-08-20T13:05:31.243Z,3.90
2022-08-20T13:07:54.081Z,3.50
2022-08-20T13:10:19.232Z,3.50
2022-08-20T13:12:44.604Z,3.60
2022-08-20T13:15:07.396Z,3.20
2022-08-20T13:17:38.353Z,3.70
2022-08-20T13:20:02.680Z,4.10
2022-08-20T13:22:25.628Z,3.80
2022-08-20T13:24:48.288Z,3.30
2022-08-20T13:27:12.305Z,3.20
2022-08-20T13:29:35.181Z,3.70
2022-08-20T13:31:57.776Z,3.70
2022-08-20T13:34:20.698Z,3.90
2022-08-20T13:36:45.799Z,3.50
2022-08-20T13:39:08.650Z,3.50
2022-08-20T13:41:34.436Z,3.70
2022-08-20T13:43:57.218Z,3.70
2022-08-20T13:46:22.321Z,3.60
2022-08-20T13:48:45.067Z,3.90
2022-08-20T13:51:09.829Z,3.80
2022-08-20T13:53:32.461Z,3.40
2022-08-20T13:55:55.318Z,4.00
2022-08-20T13:58:18.061Z,3.80
2022-08-20T14:00:40.855Z,3.80
2022-08-20T14:03:07.201Z,3.60
2022-08-20T14:05:30.755Z,3.80
2022-08-20T14:07:53.507Z,4.30
2022-08-20T14:10:19.625Z,4.10
2022-08-20T14:12:42.580Z,3.60
2022-08-20T14:15:09.116Z,3.60
2022-08-20T14:17:33.453Z,3.90
2022-08-20T14:20:01.972Z,3.80
2022-08-20T14:22:27.081Z,3.70
2022-08-20T14:24:52.732Z,3.70
2022-08-20T14:27:16.421Z,3.60
2022-08-20T14:29:40.029Z,4.10
2022-08-20T14:32:05.653Z,3.60
2022-08-20T14:34:28.505Z,3.60
2022-08-20T14:36:51.467Z,3.80
2022-08-20T14:39:17.342Z,3.80
2022-08-20T14:41:45.482Z,3.80
2022-08-20T14:44:08.405Z,3.60
2022-08-20T14:46:30.973Z,3.50
2022-08-20T14:48:53.901Z,3.30
2022-08-20T14:51:16.952Z,3.40
2022-08-20T14:53:41.687Z,3.40
2022-08-20T14:56:05.137Z,3.50
2022-08-20T14:58:30.210Z,3.30
2022-08-20T15:00:53.112Z,4.10
2022-08-20T15:03:15.841Z,3.60
2022-08-20T15:05:40.711Z,3.50
2022-08-20T15:08:03.866Z,3.60
2022-08-20T15:10:29.589Z,3.80
2022-08-20T15:12:52.670Z,3.90
2022-08-20T15:15:16.272Z,3.90
2022-08-20T15:17:39.367Z,3.60
2022-08-20T15:20:20.430Z,3.70
2022-08-20T15:22:46.183Z,3.90
2022-08-20T15:25:10.547Z,3.80
2022-08-20T15:27:33.394Z,3.10
2022-08-20T15:29:58.425Z,3.40
2022-08-20T15:32:21.050Z,3.20
2022-08-20T15:34:43.658Z,3.60
2022-08-20T15:37:10.443Z,3.60
2022-08-20T15:39:33.123Z,3.90
2022-08-20T15:41:56.019Z,3.60
2022-08-20T15:44:19.177Z,3.70
2022-08-20T15:46:44.224Z,3.40
2022-08-20T15:49:11.742Z,4.10
2022-08-20T15:51:41.964Z,3.70
2022-08-20T15:54:12.011Z,3.40
2022-08-20T15:56:40.463Z,3.80
2022-08-20T15:59:18.671Z,3.40
2022-08-20T16:01:46.947Z,3.10
2022-08-20T16:04:12.824Z,3.90
2022-08-20T16:06:36.804Z,3.50
2022-08-20T16:09:14.809Z,4.00
2022-08-20T16:11:39.976Z,3.90
2022-08-20T16:14:35.297Z,3.90
2022-08-20T16:17:03.854Z,3.40
2022-08-20T16:19:41.313Z,3.30
2022-08-20T16:22:04.915Z,3.70
2022-08-20T16:24:28.121Z,4.00
2022-08-20T16:26:54.011Z,4.00
2022-08-20T16:29:16.664Z,3.50
2022-08-20T16:31:48.939Z,3.80
2022-08-20T16:34:33.759Z,3.90
2022-08-20T16:36:57.101Z,3.20
2022-08-20T16:39:37.253Z,3.60
2022-08-20T16:42:05.658Z,3.60
2022-08-20T16:44:31.900Z,3.70
2022-08-20T16:47:14.029Z,4.20
2022-08-20T16:49:41.463Z,3.50
2022-08-20T16:52:05.659Z,4.50
2022-08-20T16:54:30.161Z,4.00
2022-08-20T16:56:58.884Z,4.20
2022-08-20T16:59:24.684Z,4.30
2022-08-20T17:02:01.612Z,3.90
2022-08-20T17:04:27.418Z,3.60
2022-08-20T17:06:53.769Z,4.00
2022-08-20T17:09:22.661Z,4.50
2022-08-20T17:11:46.969Z,4.30
2022-08-20T17:14:14.464Z,4.50
2022-08-20T17:16:41.021Z,4.40
2022-08-20T17:19:10.975Z,4.10
2022-08-20T17:21:35.972Z,4.00
2022-08-20T17:23:58.549Z,3.90
2022-08-20T17:26:23.678Z,4.30
2022-08-20T17:28:54.283Z,4.10
2022-08-20T17:31:38.775Z,5.00
2022-08-20T17:34:02.255Z,3.90
2022-08-20T17:36:27.664Z,4.70
2022-08-20T17:38:54.249Z,4.50
2022-08-20T17:41:22.247Z,4.70
2022-08-20T17:43:45.054Z,5.00
2022-08-20T17:46:11.322Z,4.20
2022-08-20T17:48:39.018Z,4.50
2022-08-20T17:51:06.164Z,4.30
2022-08-20T17:53:31.694Z,4.00
2022-08-20T17:56:09.058Z,4.30
2022-08-20T17:58:37.963Z,4.10
2022-08-20T18:01:04.192Z,4.60
2022-08-20T18:03:31.031Z,4.60
2022-08-20T18:06:07.585Z,5.40
2022-08-20T18:08:34.965Z,4.90
2022-08-20T18:11:04.230Z,4.50
2022-08-20T18:13:48.384Z,4.20
2022-08-20T18:16:17.081Z,4.90
2022-08-20T18:18:56.529Z,4.20
2022-08-20T18:21:26.175Z,4.60
2022-08-20T18:23:55.584Z,4.60
2022-08-20T18:26:18.408Z,4.70
2022-08-20T18:28:47.397Z,4.00
2022-08-20T18:31:22.737Z,3.60
2022-08-20T18:33:48.255Z,3.80
2022-08-20T18:36:20.321Z,3.60
2022-08-20T18:38:56.290Z,4.00
2022-08-20T18:41:30.491Z,3.50
2022-08-20T18:44:05.515Z,3.40
2022-08-20T18:46:34.157Z,3.60
2022-08-20T18:48:58.424Z,3.30
2022-08-20T18:51:24.215Z,3.80
2022-08-20T18:53:47.950Z,3.30
2022-08-20T18:56:15.136Z,3.00
2022-08-20T18:58:54.717Z,2.80
2022-08-20T19:01:18.241Z,3.90
2022-08-20T19:03:46.533Z,3.50
2022-08-20T19:06:21.596Z,3.00
2022-08-20T19:09:01.225Z,3.50
2022-08-20T19:11:42.586Z,3.10
2022-08-20T19:14:23.986Z,3.10
2022-08-20T19:16:49.707Z,3.10
2022-08-20T19:19:23.907Z,3.00
2022-08-20T19:21:47.076Z,3.40
2022-08-20T19:24:11.754Z,3.10
2022-08-20T19:26:47.299Z,3.80
2022-08-20T19:29:15.654Z,3.30
2022-08-20T19:31:38.765Z,3.20
2022-08-20T19:34:02.256Z,3.80
2022-08-20T19:36:28.464Z,3.10
2022-08-20T19:38:54.861Z,3.80
2022-08-20T19:41:29.254Z,3.50
2022-08-20T19:43:55.005Z,3.60
2022-08-20T19:46:20.932Z,3.00
2022-08-20T19:48:57.635Z,3.90
2022-08-20T19:51:20.347Z,3.50
2022-08-20T19:53:47.233Z,3.90
2022-08-20T19:56:13.834Z,4.00
2022-08-20T19:58:36.881Z,4.20
2022-08-20T20:01:01.267Z,3.70
2022-08-20T20:03:25.805Z,3.50
2022-08-20T20:05:51.381Z,4.20
2022-08-20T20:08:14.358Z,4.10
2022-08-20T20:10:39.835Z,3.40
2022-08-20T20:13:09.730Z,3.50
2022-08-20T20:15:37.518Z,3.20
2022-08-20T20:18:00.336Z,3.80
2022-08-20T20:20:29.672Z,3.90
2022-08-20T20:22:55.083Z,3.70
2022-08-20T20:25:37.497Z,3.50
2022-08-20T20:28:11.542Z,3.50
2022-08-20T20:30:34.501Z,3.20
2022-08-20T20:32:58.590Z,3.30
2022-08-20T20:35:29.775Z,4.00
2022-08-20T20:38:16.246Z,3.70
2022-08-20T20:40:47.651Z,3.60
2022-08-20T20:43:11.809Z,3.40
2022-08-20T20:45:37.979Z,4.00
2022-08-20T20:48:02.015Z,3.60
2022-08-20T20:50:34.478Z,3.40
2022-08-20T20:52:58.166Z,4.00
2022-08-20T20:55:21.566Z,3.50
2022-08-20T20:57:44.269Z,3.90
2022-08-20T21:00:11.607Z,4.20
2022-08-20T21:02:34.461Z,3.80
2022-08-20T21:04:58.685Z,3.70
2022-08-20T21:07:25.122Z,4.00
2022-08-20T21:09:50.211Z,3.40
2022-08-20T21:12:13.906Z,3.60
2022-08-20T21:14:37.149Z,3.60
2022-08-20T21:17:01.509Z,4.00
2022-08-20T21:19:24.570Z,4.60
2022-08-20T21:21:47.312Z,3.30
2022-08-20T21:24:13.026Z,3.80
2022-08-20T21:26:36.226Z,3.30
2022-08-20T21:28:59.136Z,3.30
2022-08-20T21:31:26.458Z,3.90
2022-08-20T21:33:51.432Z,3.80
2022-08-20T21:36:16.806Z,4.90
2022-08-20T21:38:39.550Z,5.10
2022-08-20T21:41:02.640Z,5.00
2022-08-20T21:43:25.691Z,3.80
2022-08-20T21:45:49.539Z,4.10
2022-08-20T21:48:12.801Z,4.50
2022-08-20T21:50:35.745Z,4.30
2022-08-20T21:52:59.860Z,4.30
2022-08-20T21:55:26.850Z,4.50
2022-08-20T21:57:49.582Z,4.20
2022-08-20T22:00:21.473Z,3.50
2022-08-20T22:02:46.282Z,4.30
2022-08-20T22:05:09.455Z,4.10
2022-08-20T22:07:32.118Z,4.30
2022-08-20T22:09:55.024Z,4.10
2022-08-20T22:12:23.304Z,3.90
2022-08-20T22:14:46.501Z,4.80
2022-08-20T22:17:09.315Z,4.10
2022-08-20T22:19:34.284Z,4.90
2022-08-20T22:21:57.822Z,6.10
2022-08-20T22:24:20.833Z,5.30
2022-08-20T22:26:44.012Z,4.00
2022-08-20T22:29:08.271Z,4.50
2022-08-20T22:31:33.011Z,3.90
2022-08-20T22:33:56.534Z,4.10
2022-08-20T22:36:19.076Z,4.70
2022-08-20T22:38:41.824Z,3.80
2022-08-20T22:41:09.438Z,4.30
2022-08-20T22:43:32.505Z,3.80
2022-08-20T22:45:57.638Z,4.80
2022-08-20T22:48:20.981Z,4.70
2022-08-20T22:50:44.157Z,4.20
2022-08-20T22:53:07.681Z,3.50
2022-08-20T22:55:32.851Z,6.50
2022-08-20T22:57:55.779Z,5.00
2022-08-20T23:00:20.412Z,8.90
2022-08-20T23:02:44.552Z,5.30
2022-08-20T23:05:08.141Z,9.60
2022-08-20T23:07:30.897Z,9.20
2022-08-20T23:09:53.934Z,8.60
2022-08-20T23:12:16.698Z,6.30
2022-08-20T23:14:39.413Z,3.90
2022-08-20T23:17:04.128Z,5.40
2022-08-20T23:19:29.514Z,5.60
2022-08-20T23:21:52.987Z,6.50
2022-08-20T23:24:16.144Z,5.60
2022-08-20T23:26:39.400Z,5.70
2022-08-20T23:29:12.646Z,5.30
2022-08-20T23:31:44.453Z,5.60
2022-08-20T23:34:07.446Z,6.80
2022-08-20T23:36:30.868Z,5.60
2022-08-20T23:38:54.355Z,5.50
2022-08-20T23:41:18.921Z,6.30
2022-08-20T23:43:41.672Z,5.90
2022-08-20T23:46:05.748Z,6.00
2022-08-20T23:48:33.275Z,4.90
2022-08-20T23:50:58.293Z,4.70
2022-08-20T23:53:20.922Z,4.20
2022-08-20T23:55:44.525Z,4.40
2022-08-20T23:58:08.357Z,4.70
